sensor_id;sensor_type;location;lat;lon;timestamp;temperature;humidity
10270;DHT22;5180;50.832;5.390;2022-09-20T00:00:46;13.30;99.90
10270;DHT22;5180;50.832;5.390;2022-09-20T00:03:13;13.30;99.90
10270;DHT22;5180;50.832;5.390;2022-09-20T00:05:40;13.30;99.90
10270;DHT22;5180;50.832;5.390;2022-09-20T00:08:11;13.30;99.90
10270;DHT22;5180;50.832;5.390;2022-09-20T00:10:37;13.20;99.90
10270;DHT22;5180;50.832;5.390;2022-09-20T00:13:06;13.20;99.90
10270;DHT22;5180;50.832;5.390;2022-09-20T00:15:32;13.10;99.90
10270;DHT22;5180;50.832;5.390;2022-09-20T00:17:58;13.20;99.90
10270;DHT22;5180;50.832;5.390;2022-09-20T00:20:24;13.10;99.90
10270;DHT22;5180;50.832;5.390;2022-09-20T00:22:50;13.10;99.90
10270;DHT22;5180;50.832;5.390;2022-09-20T00:25:17;13.10;99.90
10270;DHT22;5180;50.832;5.390;2022-09-20T00:27:43;13.20;99.90
10270;DHT22;5180;50.832;5.390;2022-09-20T00:30:13;13.10;99.90
10270;DHT22;5180;50.832;5.390;2022-09-20T00:32:39;13.10;99.90
10270;DHT22;5180;50.832;5.390;2022-09-20T00:35:06;13.00;99.90
10270;DHT22;5180;50.832;5.390;2022-09-20T00:37:35;13.00;99.90
10270;DHT22;5180;50.832;5.390;2022-09-20T00:40:03;13.00;99.90
10270;DHT22;5180;50.832;5.390;2022-09-20T00:42:30;13.00;99.90
10270;DHT22;5180;50.832;5.390;2022-09-20T00:45:39;13.00;99.90
10270;DHT22;5180;50.832;5.390;2022-09-20T00:47:51;13.00;99.90
10270;DHT22;5180;50.832;5.390;2022-09-20T00:55:28;12.80;99.90
10270;DHT22;5180;50.832;5.390;2022-09-20T00:57:53;12.70;99.90
10270;DHT22;5180;50.832;5.390;2022-09-20T01:00:20;12.70;99.90
10270;DHT22;5180;50.832;5.390;2022-09-20T01:02:49;12.80;99.90
10270;DHT22;5180;50.832;5.390;2022-09-20T01:05:17;12.80;99.90
10270;DHT22;5180;50.832;5.390;2022-09-20T01:07:49;12.80;99.90
10270;DHT22;5180;50.832;5.390;2022-09-20T01:10:16;12.80;99.90
10270;DHT22;5180;50.832;5.390;2022-09-20T01:12:42;12.90;99.90
10270;DHT22;5180;50.832;5.390;2022-09-20T01:15:09;12.80;99.90
10270;DHT22;5180;50.832;5.390;2022-09-20T01:17:38;12.90;99.90
10270;DHT22;5180;50.832;5.390;2022-09-20T01:20:17;12.80;99.90
10270;DHT22;5180;50.832;5.390;2022-09-20T01:28:04;12.70;99.90
10270;DHT22;5180;50.832;5.390;2022-09-20T01:30:40;12.70;99.90
10270;DHT22;5180;50.832;5.390;2022-09-20T01:35:49;12.70;99.90
10270;DHT22;5180;50.832;5.390;2022-09-20T01:41:23;12.80;99.90
10270;DHT22;5180;50.832;5.390;2022-09-20T01:44:16;12.80;99.90
10270;DHT22;5180;50.832;5.390;2022-09-20T01:46:44;12.80;99.90
10270;DHT22;5180;50.832;5.390;2022-09-20T01:49:39;12.80;99.90
10270;DHT22;5180;50.832;5.390;2022-09-20T01:55:16;13.00;99.90
10270;DHT22;5180;50.832;5.390;2022-09-20T02:01:29;12.90;99.90
10270;DHT22;5180;50.832;5.390;2022-09-20T02:13:07;13.00;99.90
10270;DHT22;5180;50.832;5.390;2022-09-20T02:17:59;13.00;99.90
10270;DHT22;5180;50.832;5.390;2022-09-20T02:20:31;13.00;99.90
10270;DHT22;5180;50.832;5.390;2022-09-20T02:25:45;13.10;99.90
10270;DHT22;5180;50.832;5.390;2022-09-20T02:39:36;13.00;99.90
10270;DHT22;5180;50.832;5.390;2022-09-20T02:42:22;12.90;99.90
10270;DHT22;5180;50.832;5.390;2022-09-20T02:47:39;12.90;99.90
10270;DHT22;5180;50.832;5.390;2022-09-20T02:59:39;12.90;99.90
10270;DHT22;5180;50.832;5.390;2022-09-20T03:02:23;12.90;99.90
10270;DHT22;5180;50.832;5.390;2022-09-20T03:19:52;13.00;99.90
10270;DHT22;5180;50.832;5.390;2022-09-20T03:31:50;13.00;99.90
10270;DHT22;5180;50.832;5.390;2022-09-20T03:34:48;13.00;99.90
10270;DHT22;5180;50.832;5.390;2022-09-20T03:37:43;12.90;99.90
10270;DHT22;5180;50.832;5.390;2022-09-20T03:43:37;12.90;99.90
10270;DHT22;5180;50.832;5.390;2022-09-20T03:46:28;12.90;99.90
10270;DHT22;5180;50.832;5.390;2022-09-20T03:51:48;12.90;99.90
10270;DHT22;5180;50.832;5.390;2022-09-20T04:00:06;12.90;99.90
10270;DHT22;5180;50.832;5.390;2022-09-20T04:02:52;12.90;99.90
10270;DHT22;5180;50.832;5.390;2022-09-20T04:06:16;12.90;99.90
10270;DHT22;5180;50.832;5.390;2022-09-20T04:22:15;12.70;99.90
10270;DHT22;5180;50.832;5.390;2022-09-20T04:24:55;12.70;99.90
10270;DHT22;5180;50.832;5.390;2022-09-20T04:27:26;12.70;99.90
10270;DHT22;5180;50.832;5.390;2022-09-20T04:30:05;12.70;99.90
10270;DHT22;5180;50.832;5.390;2022-09-20T04:33:03;12.70;99.90
10270;DHT22;5180;50.832;5.390;2022-09-20T04:38:39;12.60;99.90
10270;DHT22;5180;50.832;5.390;2022-09-20T04:47:07;12.70;99.90
10270;DHT22;5180;50.832;5.390;2022-09-20T05:18:26;12.50;99.90
10270;DHT22;5180;50.832;5.390;2022-09-20T05:29:30;12.50;99.90
10270;DHT22;5180;50.832;5.390;2022-09-20T05:34:37;12.60;99.90
10270;DHT22;5180;50.832;5.390;2022-09-20T05:37:36;12.60;99.90
10270;DHT22;5180;50.832;5.390;2022-09-20T05:43:17;12.70;99.90
10270;DHT22;5180;50.832;5.390;2022-09-20T05:46:04;12.60;99.90
10270;DHT22;5180;50.832;5.390;2022-09-20T06:00:14;12.70;99.90
10270;DHT22;5180;50.832;5.390;2022-09-20T06:16:05;13.00;99.90
10270;DHT22;5180;50.832;5.390;2022-09-20T06:21:39;13.10;99.90
10270;DHT22;5180;50.832;5.390;2022-09-20T06:24:37;13.20;99.90
10270;DHT22;5180;50.832;5.390;2022-09-20T06:27:05;13.20;99.90
10270;DHT22;5180;50.832;5.390;2022-09-20T06:29:35;13.30;99.90
10270;DHT22;5180;50.832;5.390;2022-09-20T06:32:01;13.40;99.90
10270;DHT22;5180;50.832;5.390;2022-09-20T06:34:27;13.50;99.90
10270;DHT22;5180;50.832;5.390;2022-09-20T06:40:15;13.60;99.90
10270;DHT22;5180;50.832;5.390;2022-09-20T06:43:02;13.60;99.90
10270;DHT22;5180;50.832;5.390;2022-09-20T06:45:28;13.50;99.90
10270;DHT22;5180;50.832;5.390;2022-09-20T06:47:54;13.50;99.90
10270;DHT22;5180;50.832;5.390;2022-09-20T06:50:20;13.50;99.90
10270;DHT22;5180;50.832;5.390;2022-09-20T06:52:45;13.60;99.90
10270;DHT22;5180;50.832;5.390;2022-09-20T06:55:20;13.70;99.90
10270;DHT22;5180;50.832;5.390;2022-09-20T06:57:47;13.90;99.90
10270;DHT22;5180;50.832;5.390;2022-09-20T07:00:14;14.20;99.90
10270;DHT22;5180;50.832;5.390;2022-09-20T07:02:41;14.60;99.90
10270;DHT22;5180;50.832;5.390;2022-09-20T07:05:13;14.80;99.90
10270;DHT22;5180;50.832;5.390;2022-09-20T07:07:39;15.20;99.90
10270;DHT22;5180;50.832;5.390;2022-09-20T07:10:05;15.40;99.90
10270;DHT22;5180;50.832;5.390;2022-09-20T07:12:31;15.50;99.90
10270;DHT22;5180;50.832;5.390;2022-09-20T07:14:58;15.60;99.90
10270;DHT22;5180;50.832;5.390;2022-09-20T07:17:24;15.60;99.90
10270;DHT22;5180;50.832;5.390;2022-09-20T07:19:50;15.70;99.90
10270;DHT22;5180;50.832;5.390;2022-09-20T07:22:16;15.80;99.90
10270;DHT22;5180;50.832;5.390;2022-09-20T07:24:41;15.90;99.90
10270;DHT22;5180;50.832;5.390;2022-09-20T07:27:10;16.00;99.90
10270;DHT22;5180;50.832;5.390;2022-09-20T07:29:36;15.90;99.90
10270;DHT22;5180;50.832;5.390;2022-09-20T07:32:02;16.00;99.90
10270;DHT22;5180;50.832;5.390;2022-09-20T07:34:28;16.00;99.90
10270;DHT22;5180;50.832;5.390;2022-09-20T07:36:54;16.00;99.90
10270;DHT22;5180;50.832;5.390;2022-09-20T07:39:21;16.20;99.90
10270;DHT22;5180;50.832;5.390;2022-09-20T07:41:47;16.30;99.90
10270;DHT22;5180;50.832;5.390;2022-09-20T07:44:16;16.40;99.90
10270;DHT22;5180;50.832;5.390;2022-09-20T07:46:54;16.50;99.90
10270;DHT22;5180;50.832;5.390;2022-09-20T07:49:21;16.60;99.90
10270;DHT22;5180;50.832;5.390;2022-09-20T07:51:48;16.70;99.90
10270;DHT22;5180;50.832;5.390;2022-09-20T07:54:14;16.70;99.90
10270;DHT22;5180;50.832;5.390;2022-09-20T07:56:40;16.50;99.90
10270;DHT22;5180;50.832;5.390;2022-09-20T07:59:05;16.50;99.90
10270;DHT22;5180;50.832;5.390;2022-09-20T08:01:31;16.50;99.90
10270;DHT22;5180;50.832;5.390;2022-09-20T08:03:57;16.40;99.90
10270;DHT22;5180;50.832;5.390;2022-09-20T08:06:22;16.40;99.90
10270;DHT22;5180;50.832;5.390;2022-09-20T08:08:48;16.40;99.90
10270;DHT22;5180;50.832;5.390;2022-09-20T08:11:21;16.20;99.90
10270;DHT22;5180;50.832;5.390;2022-09-20T08:13:52;16.10;99.90
10270;DHT22;5180;50.832;5.390;2022-09-20T08:16:18;16.00;99.90
10270;DHT22;5180;50.832;5.390;2022-09-20T08:18:49;15.90;99.90
10270;DHT22;5180;50.832;5.390;2022-09-20T08:21:15;15.90;99.90
10270;DHT22;5180;50.832;5.390;2022-09-20T08:23:43;15.90;99.90
10270;DHT22;5180;50.832;5.390;2022-09-20T08:26:11;16.00;99.90
10270;DHT22;5180;50.832;5.390;2022-09-20T08:28:38;15.90;99.90
10270;DHT22;5180;50.832;5.390;2022-09-20T08:31:10;15.90;99.90
10270;DHT22;5180;50.832;5.390;2022-09-20T08:33:36;15.90;99.90
10270;DHT22;5180;50.832;5.390;2022-09-20T08:36:06;15.80;99.90
10270;DHT22;5180;50.832;5.390;2022-09-20T08:38:32;15.80;99.90
10270;DHT22;5180;50.832;5.390;2022-09-20T08:41:04;15.90;99.90
10270;DHT22;5180;50.832;5.390;2022-09-20T08:43:36;16.00;99.90
10270;DHT22;5180;50.832;5.390;2022-09-20T08:46:04;16.10;99.90
10270;DHT22;5180;50.832;5.390;2022-09-20T08:48:33;16.30;99.90
10270;DHT22;5180;50.832;5.390;2022-09-20T08:51:01;16.40;99.90
10270;DHT22;5180;50.832;5.390;2022-09-20T08:53:28;16.50;99.90
10270;DHT22;5180;50.832;5.390;2022-09-20T08:55:54;16.60;99.90
10270;DHT22;5180;50.832;5.390;2022-09-20T08:58:24;16.80;99.90
10270;DHT22;5180;50.832;5.390;2022-09-20T09:00:50;16.80;99.90
10270;DHT22;5180;50.832;5.390;2022-09-20T09:03:17;16.90;99.90
10270;DHT22;5180;50.832;5.390;2022-09-20T09:08:34;17.10;99.90
10270;DHT22;5180;50.832;5.390;2022-09-20T09:11:04;17.30;99.90
10270;DHT22;5180;50.832;5.390;2022-09-20T09:14:06;17.50;99.90
10270;DHT22;5180;50.832;5.390;2022-09-20T09:16:54;17.70;99.90
10270;DHT22;5180;50.832;5.390;2022-09-20T09:19:31;17.70;99.90
10270;DHT22;5180;50.832;5.390;2022-09-20T09:21:59;17.90;99.90
10270;DHT22;5180;50.832;5.390;2022-09-20T09:24:26;18.10;99.90
10270;DHT22;5180;50.832;5.390;2022-09-20T09:27:06;18.20;99.90
10270;DHT22;5180;50.832;5.390;2022-09-20T09:29:32;18.60;99.90
10270;DHT22;5180;50.832;5.390;2022-09-20T09:32:22;19.00;99.90
10270;DHT22;5180;50.832;5.390;2022-09-20T09:34:48;19.30;99.90
10270;DHT22;5180;50.832;5.390;2022-09-20T09:37:28;19.60;99.90
10270;DHT22;5180;50.832;5.390;2022-09-20T09:40:16;20.00;99.90
10270;DHT22;5180;50.832;5.390;2022-09-20T09:42:56;20.20;99.90
10270;DHT22;5180;50.832;5.390;2022-09-20T09:47:57;20.60;99.90
10270;DHT22;5180;50.832;5.390;2022-09-20T09:50:29;20.80;99.90
10270;DHT22;5180;50.832;5.390;2022-09-20T09:53:00;21.00;99.90
10270;DHT22;5180;50.832;5.390;2022-09-20T09:58:44;20.90;99.90
10270;DHT22;5180;50.832;5.390;2022-09-20T10:01:17;21.00;99.90
10270;DHT22;5180;50.832;5.390;2022-09-20T10:04:39;21.20;99.90
10270;DHT22;5180;50.832;5.390;2022-09-20T10:06:55;21.50;99.90
10270;DHT22;5180;50.832;5.390;2022-09-20T10:09:35;21.80;99.90
10270;DHT22;5180;50.832;5.390;2022-09-20T10:12:18;22.20;99.90
10270;DHT22;5180;50.832;5.390;2022-09-20T10:14:55;22.50;99.90
10270;DHT22;5180;50.832;5.390;2022-09-20T10:22:53;22.70;99.90
10270;DHT22;5180;50.832;5.390;2022-09-20T10:25:35;22.60;99.90
10270;DHT22;5180;50.832;5.390;2022-09-20T10:33:42;22.70;99.90
10270;DHT22;5180;50.832;5.390;2022-09-20T10:39:05;22.40;99.90
10270;DHT22;5180;50.832;5.390;2022-09-20T10:41:43;22.40;99.90
10270;DHT22;5180;50.832;5.390;2022-09-20T10:47:25;22.30;99.90
10270;DHT22;5180;50.832;5.390;2022-09-20T11:08:35;21.60;98.30
10270;DHT22;5180;50.832;5.390;2022-09-20T11:11:20;21.30;98.80
10270;DHT22;5180;50.832;5.390;2022-09-20T11:14:10;21.40;98.60
10270;DHT22;5180;50.832;5.390;2022-09-20T11:16:45;21.00;98.40
10270;DHT22;5180;50.832;5.390;2022-09-20T11:22:15;21.20;98.20
10270;DHT22;5180;50.832;5.390;2022-09-20T11:25:01;21.60;98.30
10270;DHT22;5180;50.832;5.390;2022-09-20T11:27:48;22.10;98.10
10270;DHT22;5180;50.832;5.390;2022-09-20T11:30:22;22.70;98.30
10270;DHT22;5180;50.832;5.390;2022-09-20T11:33:03;23.30;98.00
10270;DHT22;5180;50.832;5.390;2022-09-20T11:35:41;23.70;97.40
10270;DHT22;5180;50.832;5.390;2022-09-20T11:38:20;23.90;96.90
10270;DHT22;5180;50.832;5.390;2022-09-20T11:41:03;23.90;96.20
10270;DHT22;5180;50.832;5.390;2022-09-20T11:43:31;23.60;95.70
10270;DHT22;5180;50.832;5.390;2022-09-20T11:46:00;23.30;95.40
10270;DHT22;5180;50.832;5.390;2022-09-20T11:48:42;23.00;95.40
10270;DHT22;5180;50.832;5.390;2022-09-20T11:56:21;21.80;95.50
10270;DHT22;5180;50.832;5.390;2022-09-20T11:58:53;21.80;95.40
10270;DHT22;5180;50.832;5.390;2022-09-20T12:01:40;21.70;95.20
10270;DHT22;5180;50.832;5.390;2022-09-20T12:04:22;21.80;94.90
10270;DHT22;5180;50.832;5.390;2022-09-20T12:07:15;21.80;95.20
10270;DHT22;5180;50.832;5.390;2022-09-20T12:09:54;22.30;95.40
10270;DHT22;5180;50.832;5.390;2022-09-20T12:14:57;23.60;94.80
10270;DHT22;5180;50.832;5.390;2022-09-20T12:28:40;23.40;93.90
10270;DHT22;5180;50.832;5.390;2022-09-20T12:36:30;21.60;93.90
10270;DHT22;5180;50.832;5.390;2022-09-20T12:44:54;20.50;94.10
10270;DHT22;5180;50.832;5.390;2022-09-20T12:47:26;20.30;94.20
10270;DHT22;5180;50.832;5.390;2022-09-20T12:49:58;20.20;94.40
10270;DHT22;5180;50.832;5.390;2022-09-20T13:09:03;19.10;94.90
10270;DHT22;5180;50.832;5.390;2022-09-20T13:11:48;19.00;94.90
10270;DHT22;5180;50.832;5.390;2022-09-20T13:14:25;19.00;95.10
10270;DHT22;5180;50.832;5.390;2022-09-20T13:19:47;19.00;95.30
10270;DHT22;5180;50.832;5.390;2022-09-20T13:22:32;19.00;95.40
10270;DHT22;5180;50.832;5.390;2022-09-20T13:25:03;19.00;95.60
10270;DHT22;5180;50.832;5.390;2022-09-20T13:27:36;18.90;95.90
10270;DHT22;5180;50.832;5.390;2022-09-20T13:30:24;18.90;95.70
10270;DHT22;5180;50.832;5.390;2022-09-20T13:32:51;18.80;95.80
10270;DHT22;5180;50.832;5.390;2022-09-20T13:35:21;18.70;95.90
10270;DHT22;5180;50.832;5.390;2022-09-20T13:38:08;18.60;96.00
10270;DHT22;5180;50.832;5.390;2022-09-20T13:40:39;18.40;96.10
10270;DHT22;5180;50.832;5.390;2022-09-20T13:43:25;18.30;96.20
10270;DHT22;5180;50.832;5.390;2022-09-20T13:45:58;18.20;96.40
10270;DHT22;5180;50.832;5.390;2022-09-20T13:48:25;18.10;96.50
10270;DHT22;5180;50.832;5.390;2022-09-20T13:50:52;17.90;96.60
10270;DHT22;5180;50.832;5.390;2022-09-20T13:53:18;17.80;96.80
10270;DHT22;5180;50.832;5.390;2022-09-20T13:55:44;17.80;96.90
10270;DHT22;5180;50.832;5.390;2022-09-20T13:58:30;17.70;97.00
10270;DHT22;5180;50.832;5.390;2022-09-20T14:03:26;17.60;97.20
10270;DHT22;5180;50.832;5.390;2022-09-20T14:06:05;17.50;97.30
10270;DHT22;5180;50.832;5.390;2022-09-20T14:08:48;17.50;97.50
10270;DHT22;5180;50.832;5.390;2022-09-20T14:11:22;17.40;97.70
10270;DHT22;5180;50.832;5.390;2022-09-20T14:13:53;17.30;97.90
10270;DHT22;5180;50.832;5.390;2022-09-20T14:16:21;17.20;98.20
10270;DHT22;5180;50.832;5.390;2022-09-20T14:18:48;17.20;98.40
10270;DHT22;5180;50.832;5.390;2022-09-20T14:21:19;17.10;98.60
10270;DHT22;5180;50.832;5.390;2022-09-20T14:23:58;17.10;98.70
10270;DHT22;5180;50.832;5.390;2022-09-20T14:26:33;17.00;98.80
10270;DHT22;5180;50.832;5.390;2022-09-20T14:32:04;17.10;99.00
10270;DHT22;5180;50.832;5.390;2022-09-20T14:34:35;17.10;99.00
10270;DHT22;5180;50.832;5.390;2022-09-20T14:37:05;17.00;99.40
10270;DHT22;5180;50.832;5.390;2022-09-20T14:39:32;17.10;99.10
10270;DHT22;5180;50.832;5.390;2022-09-20T14:42:00;17.00;99.20
10270;DHT22;5180;50.832;5.390;2022-09-20T14:46:55;17.00;99.30
10270;DHT22;5180;50.832;5.390;2022-09-20T14:54:38;17.00;99.60
10270;DHT22;5180;50.832;5.390;2022-09-20T14:57:05;17.00;99.80
10270;DHT22;5180;50.832;5.390;2022-09-20T14:59:41;17.00;99.70
10270;DHT22;5180;50.832;5.390;2022-09-20T15:04:35;17.10;99.80
10270;DHT22;5180;50.832;5.390;2022-09-20T15:07:07;17.10;99.80
10270;DHT22;5180;50.832;5.390;2022-09-20T15:09:35;17.20;99.80
10270;DHT22;5180;50.832;5.390;2022-09-20T15:12:04;17.20;99.80
10270;DHT22;5180;50.832;5.390;2022-09-20T15:14:31;17.20;99.90
10270;DHT22;5180;50.832;5.390;2022-09-20T15:16:57;17.20;99.90
10270;DHT22;5180;50.832;5.390;2022-09-20T15:19:25;17.30;99.90
10270;DHT22;5180;50.832;5.390;2022-09-20T15:21:50;17.50;99.90
10270;DHT22;5180;50.832;5.390;2022-09-20T15:24:16;17.70;99.90
10270;DHT22;5180;50.832;5.390;2022-09-20T15:26:43;18.00;99.80
10270;DHT22;5180;50.832;5.390;2022-09-20T15:29:14;18.10;99.70
10270;DHT22;5180;50.832;5.390;2022-09-20T15:31:40;18.20;99.70
10270;DHT22;5180;50.832;5.390;2022-09-20T15:34:06;18.30;99.70
10270;DHT22;5180;50.832;5.390;2022-09-20T15:36:32;18.40;99.70
10270;DHT22;5180;50.832;5.390;2022-09-20T15:38:58;18.50;99.60
10270;DHT22;5180;50.832;5.390;2022-09-20T15:41:23;18.40;99.60
10270;DHT22;5180;50.832;5.390;2022-09-20T15:43:49;18.30;99.60
10270;DHT22;5180;50.832;5.390;2022-09-20T15:46:19;18.30;99.60
10270;DHT22;5180;50.832;5.390;2022-09-20T15:48:45;18.30;99.60
10270;DHT22;5180;50.832;5.390;2022-09-20T15:51:12;18.30;99.60
10270;DHT22;5180;50.832;5.390;2022-09-20T15:53:41;18.30;99.70
10270;DHT22;5180;50.832;5.390;2022-09-20T15:56:17;18.30;99.60
10270;DHT22;5180;50.832;5.390;2022-09-20T15:58:48;18.30;99.60
10270;DHT22;5180;50.832;5.390;2022-09-20T16:01:15;18.30;99.50
10270;DHT22;5180;50.832;5.390;2022-09-20T16:03:42;18.40;99.50
10270;DHT22;5180;50.832;5.390;2022-09-20T16:06:09;18.40;99.50
10270;DHT22;5180;50.832;5.390;2022-09-20T16:08:37;18.50;99.50
10270;DHT22;5180;50.832;5.390;2022-09-20T16:11:05;18.50;99.50
10270;DHT22;5180;50.832;5.390;2022-09-20T16:13:31;18.50;99.50
10270;DHT22;5180;50.832;5.390;2022-09-20T16:15:59;18.50;99.60
10270;DHT22;5180;50.832;5.390;2022-09-20T16:18:28;18.40;99.70
10270;DHT22;5180;50.832;5.390;2022-09-20T16:21:14;18.40;99.70
10270;DHT22;5180;50.832;5.390;2022-09-20T16:23:44;18.20;99.80
10270;DHT22;5180;50.832;5.390;2022-09-20T16:26:11;18.10;99.90
10270;DHT22;5180;50.832;5.390;2022-09-20T16:28:41;17.90;99.90
10270;DHT22;5180;50.832;5.390;2022-09-20T16:31:34;17.80;99.90
10270;DHT22;5180;50.832;5.390;2022-09-20T16:34:02;17.70;99.90
10270;DHT22;5180;50.832;5.390;2022-09-20T16:36:30;17.70;99.90
10270;DHT22;5180;50.832;5.390;2022-09-20T16:38:55;17.60;99.90
10270;DHT22;5180;50.832;5.390;2022-09-20T16:41:26;17.40;99.90
10270;DHT22;5180;50.832;5.390;2022-09-20T16:43:53;17.30;99.90
10270;DHT22;5180;50.832;5.390;2022-09-20T16:46:23;17.10;99.90
10270;DHT22;5180;50.832;5.390;2022-09-20T16:48:55;16.90;99.90
10270;DHT22;5180;50.832;5.390;2022-09-20T16:51:22;16.60;99.90
10270;DHT22;5180;50.832;5.390;2022-09-20T16:53:50;16.40;99.90
10270;DHT22;5180;50.832;5.390;2022-09-20T16:56:25;16.10;99.90
10270;DHT22;5180;50.832;5.390;2022-09-20T16:58:52;15.80;99.90
10270;DHT22;5180;50.832;5.390;2022-09-20T17:01:18;15.60;99.90
10270;DHT22;5180;50.832;5.390;2022-09-20T17:03:44;15.30;99.90
10270;DHT22;5180;50.832;5.390;2022-09-20T17:06:12;15.10;99.90
10270;DHT22;5180;50.832;5.390;2022-09-20T17:08:39;14.90;99.90
10270;DHT22;5180;50.832;5.390;2022-09-20T17:11:10;14.80;99.90
10270;DHT22;5180;50.832;5.390;2022-09-20T17:13:37;14.60;99.90
10270;DHT22;5180;50.832;5.390;2022-09-20T17:16:10;14.50;99.90
10270;DHT22;5180;50.832;5.390;2022-09-20T17:18:36;14.30;99.90
10270;DHT22;5180;50.832;5.390;2022-09-20T17:21:10;14.20;99.90
10270;DHT22;5180;50.832;5.390;2022-09-20T17:23:38;14.10;99.90
10270;DHT22;5180;50.832;5.390;2022-09-20T17:26:06;13.90;99.90
10270;DHT22;5180;50.832;5.390;2022-09-20T17:28:38;13.80;99.90
10270;DHT22;5180;50.832;5.390;2022-09-20T17:31:05;13.70;99.90
10270;DHT22;5180;50.832;5.390;2022-09-20T17:33:33;13.60;99.90
10270;DHT22;5180;50.832;5.390;2022-09-20T17:35:59;13.60;99.90
10270;DHT22;5180;50.832;5.390;2022-09-20T17:38:27;13.50;99.90
10270;DHT22;5180;50.832;5.390;2022-09-20T17:41:06;13.40;99.90
10270;DHT22;5180;50.832;5.390;2022-09-20T17:43:35;13.40;99.90
10270;DHT22;5180;50.832;5.390;2022-09-20T17:46:06;13.30;99.90
10270;DHT22;5180;50.832;5.390;2022-09-20T17:48:32;13.30;99.90
10270;DHT22;5180;50.832;5.390;2022-09-20T17:50:59;13.20;99.90
10270;DHT22;5180;50.832;5.390;2022-09-20T17:53:26;13.10;99.90
10270;DHT22;5180;50.832;5.390;2022-09-20T17:55:55;13.10;99.90
10270;DHT22;5180;50.832;5.390;2022-09-20T17:58:23;13.00;99.90
10270;DHT22;5180;50.832;5.390;2022-09-20T18:00:48;13.00;99.90
10270;DHT22;5180;50.832;5.390;2022-09-20T18:03:15;12.90;99.90
10270;DHT22;5180;50.832;5.390;2022-09-20T18:05:41;12.90;99.90
10270;DHT22;5180;50.832;5.390;2022-09-20T18:08:07;12.80;99.90
10270;DHT22;5180;50.832;5.390;2022-09-20T18:10:33;12.80;99.90
10270;DHT22;5180;50.832;5.390;2022-09-20T18:12:59;12.80;99.90
10270;DHT22;5180;50.832;5.390;2022-09-20T18:15:25;12.80;99.90
10270;DHT22;5180;50.832;5.390;2022-09-20T18:17:52;12.80;99.90
10270;DHT22;5180;50.832;5.390;2022-09-20T18:20:18;12.80;99.90
10270;DHT22;5180;50.832;5.390;2022-09-20T18:22:47;12.80;99.90
10270;DHT22;5180;50.832;5.390;2022-09-20T18:25:12;12.80;99.90
10270;DHT22;5180;50.832;5.390;2022-09-20T18:27:38;12.90;99.90
10270;DHT22;5180;50.832;5.390;2022-09-20T18:30:04;12.90;99.90
10270;DHT22;5180;50.832;5.390;2022-09-20T18:32:30;13.00;99.90
10270;DHT22;5180;50.832;5.390;2022-09-20T18:34:56;13.00;99.90
10270;DHT22;5180;50.832;5.390;2022-09-20T18:37:21;13.00;99.90
10270;DHT22;5180;50.832;5.390;2022-09-20T18:39:47;13.00;99.90
10270;DHT22;5180;50.832;5.390;2022-09-20T18:42:14;13.00;99.90
10270;DHT22;5180;50.832;5.390;2022-09-20T18:44:40;13.00;99.90
10270;DHT22;5180;50.832;5.390;2022-09-20T18:47:08;13.00;99.90
10270;DHT22;5180;50.832;5.390;2022-09-20T18:49:34;13.00;99.90
10270;DHT22;5180;50.832;5.390;2022-09-20T18:52:00;13.00;99.90
10270;DHT22;5180;50.832;5.390;2022-09-20T18:54:26;12.90;99.90
10270;DHT22;5180;50.832;5.390;2022-09-20T18:56:58;12.90;99.90
10270;DHT22;5180;50.832;5.390;2022-09-20T18:59:25;12.90;99.90
10270;DHT22;5180;50.832;5.390;2022-09-20T19:01:58;12.90;99.90
10270;DHT22;5180;50.832;5.390;2022-09-20T19:13:21;12.60;99.90
10270;DHT22;5180;50.832;5.390;2022-09-20T19:23:48;12.30;99.90
10270;DHT22;5180;50.832;5.390;2022-09-20T19:28:47;12.20;99.90
10270;DHT22;5180;50.832;5.390;2022-09-20T19:31:24;12.10;99.90
10270;DHT22;5180;50.832;5.390;2022-09-20T19:33:52;12.10;99.90
10270;DHT22;5180;50.832;5.390;2022-09-20T19:36:28;12.10;99.90
10270;DHT22;5180;50.832;5.390;2022-09-20T19:50:49;12.10;99.90
10270;DHT22;5180;50.832;5.390;2022-09-20T19:53:18;12.10;99.90
10270;DHT22;5180;50.832;5.390;2022-09-20T19:55:58;12.00;99.90
10270;DHT22;5180;50.832;5.390;2022-09-20T19:58:25;12.00;99.90
10270;DHT22;5180;50.832;5.390;2022-09-20T20:00:51;12.00;99.90
10270;DHT22;5180;50.832;5.390;2022-09-20T20:03:17;11.90;99.90
10270;DHT22;5180;50.832;5.390;2022-09-20T20:08:44;11.90;99.90
10270;DHT22;5180;50.832;5.390;2022-09-20T20:14:00;11.80;99.90
10270;DHT22;5180;50.832;5.390;2022-09-20T20:21:48;11.70;99.90
10270;DHT22;5180;50.832;5.390;2022-09-20T20:24:49;11.70;99.90
10270;DHT22;5180;50.832;5.390;2022-09-20T20:27:15;11.70;99.90
10270;DHT22;5180;50.832;5.390;2022-09-20T20:29:40;11.60;99.90
10270;DHT22;5180;50.832;5.390;2022-09-20T20:32:06;11.60;99.90
10270;DHT22;5180;50.832;5.390;2022-09-20T20:34:32;11.60;99.90
10270;DHT22;5180;50.832;5.390;2022-09-20T20:37:05;11.50;99.90
10270;DHT22;5180;50.832;5.390;2022-09-20T20:39:31;11.50;99.90
10270;DHT22;5180;50.832;5.390;2022-09-20T20:41:58;11.50;99.90
10270;DHT22;5180;50.832;5.390;2022-09-20T20:44:26;11.40;99.90
10270;DHT22;5180;50.832;5.390;2022-09-20T20:46:52;11.40;99.90
10270;DHT22;5180;50.832;5.390;2022-09-20T20:49:18;11.40;99.90
10270;DHT22;5180;50.832;5.390;2022-09-20T20:51:44;11.40;99.90
10270;DHT22;5180;50.832;5.390;2022-09-20T20:54:10;11.30;99.90
10270;DHT22;5180;50.832;5.390;2022-09-20T20:56:36;11.20;99.90
10270;DHT22;5180;50.832;5.390;2022-09-20T20:59:03;11.00;99.90
10270;DHT22;5180;50.832;5.390;2022-09-20T21:01:38;11.00;99.90
10270;DHT22;5180;50.832;5.390;2022-09-20T21:04:10;10.90;99.90
10270;DHT22;5180;50.832;5.390;2022-09-20T21:06:37;10.80;99.90
10270;DHT22;5180;50.832;5.390;2022-09-20T21:09:06;10.80;99.90
10270;DHT22;5180;50.832;5.390;2022-09-20T21:11:34;10.70;99.90
10270;DHT22;5180;50.832;5.390;2022-09-20T21:14:02;10.70;99.90
10270;DHT22;5180;50.832;5.390;2022-09-20T21:16:31;10.70;99.90
10270;DHT22;5180;50.832;5.390;2022-09-20T21:19:00;10.70;99.90
10270;DHT22;5180;50.832;5.390;2022-09-20T21:21:31;10.70;99.90
10270;DHT22;5180;50.832;5.390;2022-09-20T21:23:59;10.70;99.90
10270;DHT22;5180;50.832;5.390;2022-09-20T21:26:26;10.60;99.90
10270;DHT22;5180;50.832;5.390;2022-09-20T21:28:54;10.70;99.90
10270;DHT22;5180;50.832;5.390;2022-09-20T21:31:27;10.70;99.90
10270;DHT22;5180;50.832;5.390;2022-09-20T21:33:53;10.70;99.90
10270;DHT22;5180;50.832;5.390;2022-09-20T21:36:21;10.70;99.90
10270;DHT22;5180;50.832;5.390;2022-09-20T21:38:47;10.60;99.90
10270;DHT22;5180;50.832;5.390;2022-09-20T21:41:18;10.60;99.90
10270;DHT22;5180;50.832;5.390;2022-09-20T21:43:45;10.60;99.90
10270;DHT22;5180;50.832;5.390;2022-09-20T21:46:14;10.50;99.90
10270;DHT22;5180;50.832;5.390;2022-09-20T21:48:42;10.50;99.90
10270;DHT22;5180;50.832;5.390;2022-09-20T21:51:08;10.40;99.90
10270;DHT22;5180;50.832;5.390;2022-09-20T21:53:35;10.40;99.90
10270;DHT22;5180;50.832;5.390;2022-09-20T21:56:10;10.40;99.90
10270;DHT22;5180;50.832;5.390;2022-09-20T21:58:36;10.40;99.90